createdAt,value
2018-02-21T00:00:10.217Z,94.90
2018-02-21T00:02:37.644Z,94.90
2018-02-21T00:05:05.876Z,94.60
2018-02-21T00:07:33.296Z,94.60
2018-02-21T00:10:00.729Z,94.50
2018-02-21T00:12:28.179Z,94.70
2018-02-21T00:14:55.613Z,94.50
2018-02-21T00:17:23.040Z,94.70
2018-02-21T00:19:50.472Z,94.60
2018-02-21T00:22:17.899Z,94.60
2018-02-21T00:24:45.335Z,94.50
2018-02-21T00:27:12.775Z,94.60
2018-02-21T00:29:40.976Z,94.80
2018-02-21T00:32:08.424Z,94.70
2018-02-21T00:34:35.843Z,94.80
2018-02-21T00:37:03.280Z,95.10
2018-02-21T00:39:30.708Z,95.00
2018-02-21T00:41:58.136Z,95.40
2018-02-21T00:44:26.341Z,95.70
2018-02-21T00:46:53.800Z,95.70
2018-02-21T00:49:21.252Z,96.20
2018-02-21T00:51:48.680Z,96.50
2018-02-21T00:54:16.120Z,96.20
2018-02-21T00:56:43.557Z,96.60
2018-02-21T00:59:11.004Z,96.50
2018-02-21T01:01:38.443Z,96.40
2018-02-21T01:04:06.997Z,96.40
2018-02-21T01:06:34.423Z,96.80
2018-02-21T01:09:01.853Z,96.90
2018-02-21T01:11:29.297Z,97.20
2018-02-21T01:13:56.735Z,97.40
2018-02-21T01:16:24.177Z,97.50
2018-02-21T01:18:51.606Z,97.30
2018-02-21T01:21:19.812Z,97.20
2018-02-21T01:23:47.249Z,97.20
2018-02-21T01:26:14.692Z,97.20
2018-02-21T01:28:42.144Z,97.10
2018-02-21T01:31:09.596Z,97.40
2018-02-21T01:33:37.027Z,97.00
2018-02-21T01:36:04.470Z,96.60
2018-02-21T01:38:31.905Z,96.50
2018-02-21T01:40:59.352Z,96.40
2018-02-21T01:43:26.796Z,96.70
2018-02-21T01:45:54.220Z,96.50
2018-02-21T01:48:21.657Z,96.60
2018-02-21T01:50:52.036Z,96.50
2018-02-21T01:53:20.228Z,97.10
2018-02-21T01:55:47.673Z,96.70
2018-02-21T01:58:15.111Z,96.80
2018-02-21T02:00:42.639Z,96.80
2018-02-21T02:03:10.059Z,97.00
2018-02-21T02:05:38.278Z,97.30
2018-02-21T02:08:05.711Z,97.30
2018-02-21T02:10:33.133Z,97.20
2018-02-21T02:13:00.564Z,97.00
2018-02-21T02:15:28.003Z,97.00
2018-02-21T02:17:56.211Z,97.00
2018-02-21T02:20:23.673Z,97.00
2018-02-21T02:22:51.119Z,96.80
2018-02-21T02:25:19.334Z,96.80
2018-02-21T02:27:46.784Z,96.80
2018-02-21T02:30:14.246Z,96.80
2018-02-21T02:32:41.675Z,96.70
2018-02-21T02:35:09.106Z,96.50
2018-02-21T02:37:36.549Z,95.90
2018-02-21T02:40:03.981Z,96.10
2018-02-21T02:42:31.436Z,95.60
2018-02-21T02:44:58.872Z,95.40
2018-02-21T02:47:26.307Z,95.80
2018-02-21T02:49:53.746Z,95.50
2018-02-21T02:52:21.193Z,95.50
2018-02-21T02:54:48.632Z,95.70
2018-02-21T02:57:16.073Z,95.90
2018-02-21T02:59:43.509Z,95.70
2018-02-21T03:02:10.950Z,95.90
2018-02-21T03:04:38.391Z,96.00
2018-02-21T03:07:05.839Z,95.80
2018-02-21T03:09:33.273Z,95.00
2018-02-21T03:12:00.707Z,95.60
2018-02-21T03:14:28.148Z,95.10
2018-02-21T03:16:55.598Z,95.40
2018-02-21T03:19:23.016Z,95.10
2018-02-21T03:21:50.475Z,95.10
2018-02-21T03:24:17.908Z,94.90
2018-02-21T03:26:45.349Z,95.10
2018-02-21T03:29:12.787Z,95.30
2018-02-21T03:31:40.408Z,95.40
2018-02-21T03:34:08.608Z,95.60
2018-02-21T03:36:36.062Z,95.60
2018-02-21T03:39:03.511Z,95.60
2018-02-21T03:41:30.961Z,95.80
2018-02-21T03:43:58.392Z,96.00
2018-02-21T03:46:25.815Z,95.80
2018-02-21T03:48:53.270Z,95.60
2018-02-21T03:51:20.700Z,96.00
2018-02-21T03:53:48.159Z,95.80
2018-02-21T03:56:15.588Z,95.70
2018-02-21T03:58:43.019Z,95.80
2018-02-21T04:01:10.459Z,96.00
2018-02-21T04:03:37.900Z,95.80
2018-02-21T04:06:05.352Z,95.70
2018-02-21T04:08:32.789Z,95.80
2018-02-21T04:11:00.229Z,96.10
2018-02-21T04:13:27.672Z,96.20
2018-02-21T04:15:55.112Z,96.40
2018-02-21T04:18:22.559Z,96.30
2018-02-21T04:20:49.992Z,96.50
2018-02-21T04:23:17.528Z,96.60
2018-02-21T04:25:45.706Z,96.80
2018-02-21T04:28:13.148Z,96.80
2018-02-21T04:30:40.604Z,96.90
2018-02-21T04:33:08.040Z,97.00
2018-02-21T04:35:35.456Z,96.90
2018-02-21T04:38:02.906Z,97.10
2018-02-21T04:40:30.344Z,96.90
2018-02-21T04:42:57.791Z,96.80
2018-02-21T04:45:25.248Z,97.00
2018-02-21T04:47:52.700Z,96.90
2018-02-21T04:50:20.135Z,96.90
2018-02-21T04:52:47.568Z,96.80
2018-02-21T04:55:15.836Z,96.80
2018-02-21T04:57:49.007Z,96.60
2018-02-21T05:00:16.845Z,96.60
2018-02-21T05:02:44.280Z,96.50
2018-02-21T05:05:11.761Z,96.40
2018-02-21T05:07:39.192Z,96.50
2018-02-21T05:10:06.634Z,96.40
2018-02-21T05:12:34.052Z,96.40
2018-02-21T05:15:01.484Z,96.40
2018-02-21T05:17:28.916Z,96.40
2018-02-21T05:19:56.357Z,96.20
2018-02-21T05:22:23.803Z,96.50
2018-02-21T05:24:51.251Z,96.60
2018-02-21T05:27:18.688Z,96.40
2018-02-21T05:29:46.128Z,96.50
2018-02-21T05:32:13.555Z,96.60
2018-02-21T05:34:41.766Z,96.20
2018-02-21T05:37:09.202Z,96.20
2018-02-21T05:39:36.627Z,96.10
2018-02-21T05:42:04.080Z,95.90
2018-02-21T05:44:31.500Z,95.70
2018-02-21T05:46:58.984Z,95.90
2018-02-21T05:49:27.215Z,95.80
2018-02-21T05:51:54.652Z,96.00
2018-02-21T05:54:22.108Z,96.20
2018-02-21T05:56:49.524Z,96.80
2018-02-21T05:59:16.964Z,96.30
2018-02-21T06:01:44.404Z,96.30
2018-02-21T06:04:11.852Z,96.40
2018-02-21T06:06:39.308Z,96.30
2018-02-21T06:09:06.744Z,96.20
2018-02-21T06:11:34.186Z,95.50
2018-02-21T06:14:01.615Z,96.10
2018-02-21T06:16:29.044Z,94.70
2018-02-21T06:18:57.245Z,95.40
2018-02-21T06:21:24.697Z,95.30
2018-02-21T06:23:52.136Z,95.40
2018-02-21T06:26:19.561Z,95.80
2018-02-21T06:28:47.016Z,96.10
2018-02-21T06:31:14.440Z,95.70
2018-02-21T06:33:41.880Z,95.70
2018-02-21T06:36:09.336Z,95.70
2018-02-21T06:38:36.777Z,96.00
2018-02-21T06:41:04.213Z,96.10
2018-02-21T06:43:31.639Z,96.10
2018-02-21T06:45:59.061Z,96.20
2018-02-21T06:48:26.516Z,96.40
2018-02-21T06:50:53.968Z,96.30
2018-02-21T06:53:21.399Z,96.20
2018-02-21T06:55:48.826Z,96.30
2018-02-21T06:58:16.252Z,96.10
2018-02-21T07:00:44.451Z,96.10
2018-02-21T07:03:11.876Z,96.10
2018-02-21T07:05:39.300Z,96.00
2018-02-21T07:08:07.507Z,95.70
2018-02-21T07:10:34.936Z,95.70
2018-02-21T07:13:02.389Z,95.30
2018-02-21T07:15:29.876Z,95.10
2018-02-21T07:17:57.263Z,94.80
2018-02-21T07:20:24.724Z,94.80
2018-02-21T07:22:52.156Z,94.40
2018-02-21T07:25:19.595Z,94.30
2018-02-21T07:27:47.025Z,94.10
2018-02-21T07:30:14.472Z,94.30
2018-02-21T07:32:41.908Z,93.80
2018-02-21T07:35:09.347Z,94.20
2018-02-21T07:37:36.779Z,94.40
2018-02-21T07:40:04.209Z,94.50
2018-02-21T07:42:32.415Z,93.80
2018-02-21T07:44:59.852Z,93.80
2018-02-21T07:47:27.272Z,93.80
2018-02-21T07:49:54.696Z,93.90
2018-02-21T07:52:22.123Z,94.40
2018-02-21T07:54:50.312Z,93.90
2018-02-21T07:57:17.756Z,93.90
2018-02-21T07:59:45.196Z,94.20
2018-02-21T08:02:12.623Z,94.30
2018-02-21T08:04:40.061Z,94.20
2018-02-21T08:07:07.504Z,94.60
2018-02-21T08:09:35.717Z,93.20
2018-02-21T08:12:03.143Z,93.20
2018-02-21T08:14:30.581Z,93.20
2018-02-21T08:16:58.008Z,94.10
2018-02-21T08:19:25.448Z,92.40
2018-02-21T08:21:52.880Z,91.40
2018-02-21T08:24:20.320Z,91.60
2018-02-21T08:26:47.752Z,91.20
2018-02-21T08:29:15.187Z,90.70
2018-02-21T08:31:43.380Z,91.60
2018-02-21T08:34:10.817Z,91.50
2018-02-21T08:36:38.297Z,91.40
2018-02-21T08:39:05.672Z,91.10
2018-02-21T08:41:33.110Z,90.60
2018-02-21T08:44:01.305Z,90.10
2018-02-21T08:46:28.744Z,90.10
2018-02-21T08:48:56.172Z,90.80
2018-02-21T08:51:23.611Z,90.80
2018-02-21T08:53:51.049Z,90.60
2018-02-21T08:56:18.516Z,90.90
2018-02-21T08:58:45.970Z,91.20
2018-02-21T09:01:13.400Z,91.50
2018-02-21T09:03:40.847Z,92.20
2018-02-21T09:06:08.285Z,92.30
2018-02-21T09:08:35.711Z,92.20
2018-02-21T09:11:03.151Z,92.20
2018-02-21T09:13:30.576Z,92.10
2018-02-21T09:15:58.004Z,92.50
2018-02-21T09:18:26.203Z,91.40
2018-02-21T09:20:53.639Z,91.40
2018-02-21T09:23:21.089Z,90.40
2018-02-21T09:25:48.503Z,90.30
2018-02-21T09:28:15.940Z,90.30
2018-02-21T09:30:43.374Z,89.90
2018-02-21T09:33:11.556Z,87.30
2018-02-21T09:35:38.992Z,87.20
2018-02-21T09:38:06.422Z,87.60
2018-02-21T09:40:34.620Z,89.30
2018-02-21T09:43:02.052Z,89.30
2018-02-21T09:45:29.480Z,88.10
2018-02-21T09:47:56.924Z,88.60
2018-02-21T09:50:24.364Z,86.20
2018-02-21T09:52:51.788Z,84.30
2018-02-21T09:55:19.228Z,87.60
2018-02-21T09:57:46.692Z,86.40
2018-02-21T10:00:14.127Z,85.20
2018-02-21T10:02:41.549Z,84.80
2018-02-21T10:05:09.752Z,83.10
2018-02-21T10:07:37.178Z,83.10
2018-02-21T10:10:04.618Z,82.60
2018-02-21T10:12:32.048Z,83.90
2018-02-21T10:14:59.476Z,83.20
2018-02-21T10:17:27.686Z,83.50
2018-02-21T10:19:55.103Z,83.40
2018-02-21T10:22:22.544Z,84.90
2018-02-21T10:24:49.983Z,84.20
2018-02-21T10:27:17.404Z,82.70
2018-02-21T10:29:44.832Z,82.50
2018-02-21T10:32:13.027Z,83.80
2018-02-21T10:34:40.451Z,83.80
2018-02-21T10:37:07.886Z,82.10
2018-02-21T10:39:36.084Z,82.60
2018-02-21T10:42:03.514Z,82.60
2018-02-21T10:44:30.927Z,83.80
2018-02-21T10:46:58.356Z,82.70
2018-02-21T10:49:26.572Z,83.90
2018-02-21T10:51:54.041Z,83.80
2018-02-21T10:54:21.458Z,84.60
2018-02-21T10:56:48.884Z,85.80
2018-02-21T10:59:16.329Z,86.40
2018-02-21T11:01:43.749Z,87.90
2018-02-21T11:04:11.176Z,87.90
2018-02-21T11:06:39.379Z,86.50
2018-02-21T11:09:06.808Z,86.40
2018-02-21T11:11:34.249Z,86.80
2018-02-21T11:14:01.664Z,85.70
2018-02-21T11:16:29.094Z,86.70
2018-02-21T11:18:57.297Z,85.20
2018-02-21T11:21:24.723Z,85.20
2018-02-21T11:23:52.144Z,83.40
2018-02-21T11:26:19.627Z,81.60
2018-02-21T11:28:47.865Z,76.70
2018-02-21T11:31:15.347Z,76.90
2018-02-21T11:33:42.752Z,80.00
2018-02-21T11:36:10.174Z,77.10
2018-02-21T11:38:37.629Z,78.00
2018-02-21T11:41:05.052Z,78.40
2018-02-21T11:43:33.227Z,74.10
2018-02-21T11:46:00.648Z,74.10
2018-02-21T11:48:28.844Z,71.20
2018-02-21T11:50:56.286Z,71.20
2018-02-21T11:53:23.696Z,70.10
2018-02-21T11:55:51.137Z,71.70
2018-02-21T11:58:19.328Z,67.80
2018-02-21T12:00:46.743Z,67.80
2018-02-21T12:03:14.172Z,65.80
2018-02-21T12:05:42.361Z,65.90
2018-02-21T12:08:09.785Z,65.90
2018-02-21T12:10:37.204Z,62.60
2018-02-21T12:13:05.425Z,62.80
2018-02-21T12:15:32.849Z,62.70
2018-02-21T12:18:00.281Z,65.00
2018-02-21T12:20:27.712Z,65.70
2018-02-21T12:22:55.136Z,64.90
2018-02-21T12:25:23.324Z,67.90
2018-02-21T12:27:50.768Z,67.90
2018-02-21T12:30:18.176Z,65.40
2018-02-21T12:32:47.796Z,63.50
2018-02-21T12:35:15.235Z,63.40
2018-02-21T12:37:42.704Z,55.60
2018-02-21T12:40:15.849Z,52.90
2018-02-21T12:42:43.267Z,53.60
2018-02-21T12:45:11.459Z,55.40
2018-02-21T12:47:38.884Z,55.30
2018-02-21T12:50:06.381Z,58.30
2018-02-21T12:52:33.750Z,56.00
2018-02-21T12:55:01.945Z,54.10
2018-02-21T12:57:29.363Z,54.00
2018-02-21T12:59:56.784Z,52.30
2018-02-21T13:02:24.977Z,52.60
2018-02-21T13:04:52.417Z,52.40
2018-02-21T13:07:19.839Z,54.00
2018-02-21T13:09:48.036Z,55.20
2018-02-21T13:12:15.467Z,55.10
2018-02-21T13:14:42.927Z,56.00
2018-02-21T13:17:10.369Z,54.10
2018-02-21T13:19:37.800Z,49.70
2018-02-21T13:22:05.224Z,50.70
2018-02-21T13:24:32.656Z,49.10
2018-02-21T13:27:00.080Z,52.30
2018-02-21T13:29:28.279Z,50.10
2018-02-21T13:31:55.710Z,50.10
2018-02-21T13:34:23.132Z,50.30
2018-02-21T13:36:51.323Z,53.70
2018-02-21T13:39:18.760Z,53.80
2018-02-21T13:41:46.198Z,54.50
2018-02-21T13:44:13.620Z,55.20
2018-02-21T13:46:41.803Z,54.30
2018-02-21T13:49:09.238Z,54.30
2018-02-21T13:51:36.672Z,57.20
2018-02-21T13:54:04.108Z,57.00
2018-02-21T13:56:31.548Z,54.10
2018-02-21T13:58:58.993Z,57.80
2018-02-21T14:01:26.403Z,58.90
2018-02-21T14:03:54.608Z,60.10
2018-02-21T14:06:22.028Z,60.10
2018-02-21T14:08:49.456Z,58.60
2018-02-21T14:11:17.647Z,56.00
2018-02-21T14:13:45.093Z,56.00
2018-02-21T14:16:12.512Z,58.10
2018-02-21T14:18:39.947Z,58.10
2018-02-21T14:21:08.120Z,58.00
2018-02-21T14:23:35.552Z,57.80
2018-02-21T14:26:02.971Z,58.00
2018-02-21T14:28:30.432Z,58.60
2018-02-21T14:30:58.623Z,57.90
2018-02-21T14:33:26.054Z,57.80
2018-02-21T14:35:53.500Z,59.70
2018-02-21T14:38:20.935Z,58.60
2018-02-21T14:40:48.361Z,57.20
2018-02-21T14:43:15.788Z,55.30
2018-02-21T14:45:43.204Z,55.90
2018-02-21T14:48:10.635Z,57.30
2018-02-21T14:50:38.056Z,58.00
2018-02-21T14:53:05.480Z,58.80
2018-02-21T14:55:32.908Z,59.20
2018-02-21T14:58:00.344Z,59.00
2018-02-21T15:00:29.255Z,59.00
2018-02-21T15:02:56.702Z,59.00
2018-02-21T15:05:24.132Z,58.50
2018-02-21T15:07:51.568Z,58.30
2018-02-21T15:10:19.008Z,58.30
2018-02-21T15:12:46.432Z,58.80
2018-02-21T15:15:13.875Z,59.70
2018-02-21T15:17:41.295Z,58.60
2018-02-21T15:20:08.741Z,59.20
2018-02-21T15:22:36.160Z,60.10
2018-02-21T15:25:03.596Z,58.40
2018-02-21T15:27:31.016Z,57.50
2018-02-21T15:29:58.456Z,58.50
2018-02-21T15:32:25.881Z,57.80
2018-02-21T15:34:53.308Z,57.90
2018-02-21T15:37:20.740Z,59.00
2018-02-21T15:39:48.957Z,59.30
2018-02-21T15:42:16.382Z,59.20
2018-02-21T15:44:43.808Z,60.30
2018-02-21T15:47:11.264Z,58.90
2018-02-21T15:49:38.656Z,60.30
2018-02-21T15:52:06.866Z,58.60
2018-02-21T15:54:34.302Z,58.60
2018-02-21T15:57:01.724Z,57.80
2018-02-21T15:59:29.152Z,59.40
2018-02-21T16:01:56.577Z,58.80
2018-02-21T16:04:24.775Z,57.30
2018-02-21T16:06:52.203Z,57.20
2018-02-21T16:09:19.616Z,57.30
2018-02-21T16:11:47.824Z,63.10
2018-02-21T16:14:15.261Z,63.00
2018-02-21T16:16:42.724Z,66.50
2018-02-21T16:19:10.153Z,68.10
2018-02-21T16:21:37.612Z,68.70
2018-02-21T16:24:05.037Z,69.50
2018-02-21T16:26:32.464Z,70.00
2018-02-21T16:28:59.901Z,70.30
2018-02-21T16:31:27.312Z,70.50
2018-02-21T16:33:55.513Z,72.90
2018-02-21T16:36:22.935Z,72.90
2018-02-21T16:38:50.381Z,73.40
2018-02-21T16:41:17.817Z,73.40
2018-02-21T16:43:45.257Z,74.30
2018-02-21T16:46:12.709Z,74.40
2018-02-21T16:48:40.132Z,74.20
2018-02-21T16:51:08.340Z,77.00
2018-02-21T16:53:35.759Z,77.00
2018-02-21T16:56:03.184Z,77.20
2018-02-21T16:58:30.616Z,78.60
2018-02-21T17:00:58.812Z,78.60
2018-02-21T17:03:26.235Z,78.60
2018-02-21T17:05:53.684Z,79.40
2018-02-21T17:08:21.095Z,79.70
2018-02-21T17:10:49.279Z,79.20
2018-02-21T17:13:16.772Z,79.10
2018-02-21T17:15:44.140Z,79.10
2018-02-21T17:18:12.415Z,80.00
2018-02-21T17:20:39.880Z,79.80
2018-02-21T17:23:08.037Z,79.60
2018-02-21T17:25:35.476Z,79.40
2018-02-21T17:28:02.896Z,80.20
2018-02-21T17:30:30.319Z,79.60
2018-02-21T17:32:58.516Z,80.50
2018-02-21T17:35:25.940Z,80.20
2018-02-21T17:37:53.369Z,79.60
2018-02-21T17:40:21.560Z,79.10
2018-02-21T17:42:48.992Z,79.10
2018-02-21T17:45:16.432Z,79.80
2018-02-21T17:47:43.840Z,79.40
2018-02-21T17:50:12.041Z,79.30
2018-02-21T17:52:39.472Z,79.30
2018-02-21T17:55:06.888Z,79.40
2018-02-21T17:57:35.088Z,79.50
2018-02-21T18:00:02.512Z,79.40
2018-02-21T18:02:29.931Z,79.20
2018-02-21T18:04:58.121Z,77.20
2018-02-21T18:07:25.548Z,77.10
2018-02-21T18:09:52.972Z,77.00
2018-02-21T18:12:21.166Z,77.60
2018-02-21T18:14:48.599Z,77.40
2018-02-21T18:17:16.012Z,77.60
2018-02-21T18:19:44.199Z,75.00
2018-02-21T18:22:11.639Z,75.20
2018-02-21T18:24:39.056Z,76.20
2018-02-21T18:27:07.264Z,76.10
2018-02-21T18:29:34.688Z,76.20
2018-02-21T18:32:02.133Z,76.40
2018-02-21T18:34:29.552Z,78.50
2018-02-21T18:36:56.980Z,78.90
2018-02-21T18:39:25.177Z,80.30
2018-02-21T18:41:52.612Z,80.20
2018-02-21T18:44:20.072Z,81.60
2018-02-21T18:46:47.516Z,81.60
2018-02-21T18:49:14.932Z,79.70
2018-02-21T18:51:42.372Z,78.80
2018-02-21T18:54:09.799Z,80.80
2018-02-21T18:56:37.989Z,79.80
2018-02-21T18:59:05.411Z,79.70
2018-02-21T19:01:32.854Z,79.80
2018-02-21T19:04:00.292Z,78.70
2018-02-21T19:06:27.715Z,78.10
2018-02-21T19:08:55.164Z,77.80
2018-02-21T19:11:23.355Z,77.20
2018-02-21T19:13:50.775Z,77.10
2018-02-21T19:16:18.204Z,77.20
2018-02-21T19:18:46.396Z,73.60
2018-02-21T19:21:13.820Z,73.50
2018-02-21T19:23:41.248Z,75.10
2018-02-21T19:26:08.672Z,75.10
2018-02-21T19:28:36.859Z,73.70
2018-02-21T19:31:04.292Z,73.50
2018-02-21T19:33:31.712Z,74.60
2018-02-21T19:35:59.940Z,75.90
2018-02-21T19:38:27.369Z,75.80
2018-02-21T19:40:54.809Z,76.00
2018-02-21T19:43:22.244Z,76.40
2018-02-21T19:45:49.672Z,77.00
2018-02-21T19:48:17.108Z,76.50
2018-02-21T19:50:44.552Z,77.00
2018-02-21T19:53:11.997Z,77.90
2018-02-21T19:55:39.448Z,78.00
2018-02-21T19:58:06.884Z,78.50
2018-02-21T20:00:34.319Z,78.90
2018-02-21T20:03:01.760Z,79.00
2018-02-21T20:05:29.206Z,79.60
2018-02-21T20:07:56.656Z,80.20
2018-02-21T20:10:24.088Z,79.90
2018-02-21T20:12:51.568Z,79.40
2018-02-21T20:15:18.990Z,79.90
2018-02-21T20:17:46.432Z,80.20
2018-02-21T20:20:13.860Z,79.90
2018-02-21T20:22:41.292Z,80.70
2018-02-21T20:25:08.727Z,80.30
2018-02-21T20:27:36.160Z,81.60
2018-02-21T20:30:04.356Z,81.40
2018-02-21T20:32:31.780Z,81.40
2018-02-21T20:34:59.216Z,81.10
2018-02-21T20:37:26.661Z,81.40
2018-02-21T20:39:54.093Z,81.40
2018-02-21T20:42:21.584Z,81.10
2018-02-21T20:44:49.036Z,81.00
2018-02-21T20:47:16.482Z,79.50
2018-02-21T20:49:43.907Z,82.20
2018-02-21T20:52:11.345Z,82.10
2018-02-21T20:54:38.769Z,82.00
2018-02-21T20:57:06.209Z,82.00
2018-02-21T20:59:33.641Z,81.80
2018-02-21T21:02:01.067Z,82.70
2018-02-21T21:04:28.507Z,83.20
2018-02-21T21:06:56.840Z,82.60
2018-02-21T21:09:24.260Z,82.60
2018-02-21T21:11:51.744Z,83.50
2018-02-21T21:14:19.134Z,83.60
2018-02-21T21:16:46.590Z,83.60
2018-02-21T21:19:14.038Z,83.90
2018-02-21T21:21:41.479Z,83.10
2018-02-21T21:24:08.903Z,82.70
2018-02-21T21:26:36.355Z,83.30
2018-02-21T21:29:03.783Z,83.90
2018-02-21T21:31:31.247Z,84.10
2018-02-21T21:33:58.675Z,84.40
2018-02-21T21:36:26.099Z,84.60
2018-02-21T21:38:53.550Z,85.10
2018-02-21T21:41:20.987Z,84.90
2018-02-21T21:43:48.444Z,84.60
2018-02-21T21:46:15.868Z,85.30
2018-02-21T21:48:43.300Z,86.20
2018-02-21T21:51:10.748Z,86.30
2018-02-21T21:53:38.189Z,85.60
2018-02-21T21:56:05.640Z,85.30
2018-02-21T21:58:33.068Z,85.70
2018-02-21T22:01:00.505Z,85.10
2018-02-21T22:03:27.939Z,85.70
2018-02-21T22:05:55.415Z,86.00
2018-02-21T22:08:22.945Z,86.00
2018-02-21T22:10:50.392Z,85.80
2018-02-21T22:13:17.832Z,86.20
2018-02-21T22:15:45.284Z,86.40
2018-02-21T22:18:12.711Z,86.20
2018-02-21T22:20:40.145Z,86.30
2018-02-21T22:23:07.564Z,87.10
2018-02-21T22:25:35.020Z,87.30
2018-02-21T22:28:02.448Z,87.50
2018-02-21T22:30:29.931Z,87.30
2018-02-21T22:32:57.383Z,87.40
2018-02-21T22:35:24.819Z,87.50
2018-02-21T22:37:52.253Z,87.70
2018-02-21T22:40:19.683Z,88.10
2018-02-21T22:42:47.123Z,88.40
2018-02-21T22:45:14.584Z,88.40
2018-02-21T22:47:42.011Z,88.20
2018-02-21T22:50:09.435Z,88.90
2018-02-21T22:52:36.882Z,89.20
2018-02-21T22:55:04.324Z,89.10
2018-02-21T22:57:31.763Z,89.40
2018-02-21T22:59:59.204Z,89.30
2018-02-21T23:02:26.649Z,89.30
2018-02-21T23:04:54.084Z,89.60
2018-02-21T23:07:21.525Z,89.20
2018-02-21T23:09:48.963Z,89.20
2018-02-21T23:12:16.401Z,88.80
2018-02-21T23:14:43.861Z,88.20
2018-02-21T23:17:11.288Z,88.50
2018-02-21T23:19:38.722Z,88.60
2018-02-21T23:22:06.172Z,88.30
2018-02-21T23:24:33.630Z,88.80
2018-02-21T23:27:01.068Z,89.00
2018-02-21T23:29:28.524Z,89.30
2018-02-21T23:31:55.939Z,89.50
2018-02-21T23:34:23.375Z,88.60
2018-02-21T23:36:50.820Z,88.60
2018-02-21T23:39:18.268Z,89.10
2018-02-21T23:41:45.720Z,88.50
2018-02-21T23:44:13.156Z,88.80
2018-02-21T23:46:40.585Z,89.00
2018-02-21T23:49:08.018Z,89.50
2018-02-21T23:51:35.455Z,89.40
2018-02-21T23:54:02.908Z,89.40
2018-02-21T23:56:30.332Z,89.60
2018-02-21T23:58:58.548Z,89.50
